Grover Beach, California
Current Conditions -  °F | °C
As of 4:56 AM on Thursday 30 Oct 2014 (Local Time) from KSBP Reporting Station
Clear Clear  
Wind Chill: 12°   Ceiling: Unl
Heat Index: 12°   Visibility: 10mi
Dew Point:   Wind: 5mph
Humidity: 69%   Direction: 120°ESE
Pressure: 29.94"   Gusts: NA
Location:  35.12°N, 120.62°W
Report Text: KSBP 301156Z AUTO 12004KT 10SM CLR 12/06 A2994 RMK AO2 SLP138 T01170061 10144 20111 55009
Loading
Personal Weather Stations






























Interactive Weather Map
Tropical Storm Tracking
New forecast layout! Learn more

10-Day Weather Forecast

Advertisements
Track Severe Weather on mobile